sensor_id;sensor_type;location;lat;lon;timestamp;temperature;humidity
32348;DHT22;18821;44.800;10.326;2023-04-07T00:02:04;7.90;99.90
32348;DHT22;18821;44.800;10.326;2023-04-07T00:04:30;7.90;1.00
32348;DHT22;18821;44.800;10.326;2023-04-07T00:06:56;7.80;1.00
32348;DHT22;18821;44.800;10.326;2023-04-07T00:09:22;7.80;1.00
32348;DHT22;18821;44.800;10.326;2023-04-07T00:11:48;7.80;1.00
32348;DHT22;18821;44.800;10.326;2023-04-07T00:14:14;7.70;1.00
32348;DHT22;18821;44.800;10.326;2023-04-07T00:16:40;7.80;99.90
32348;DHT22;18821;44.800;10.326;2023-04-07T00:19:06;7.70;99.90
32348;DHT22;18821;44.800;10.326;2023-04-07T00:21:32;7.70;99.90
32348;DHT22;18821;44.800;10.326;2023-04-07T00:23:58;7.70;99.90
32348;DHT22;18821;44.800;10.326;2023-04-07T00:26:24;7.70;99.90
32348;DHT22;18821;44.800;10.326;2023-04-07T00:28:57;7.70;99.90
32348;DHT22;18821;44.800;10.326;2023-04-07T00:31:23;7.70;99.90
32348;DHT22;18821;44.800;10.326;2023-04-07T00:33:49;7.70;1.00
32348;DHT22;18821;44.800;10.326;2023-04-07T00:36:14;7.70;99.90
32348;DHT22;18821;44.800;10.326;2023-04-07T00:38:40;7.70;99.90
32348;DHT22;18821;44.800;10.326;2023-04-07T00:41:06;7.70;1.00
32348;DHT22;18821;44.800;10.326;2023-04-07T00:43:32;7.70;1.00
32348;DHT22;18821;44.800;10.326;2023-04-07T00:45:58;7.70;1.00
32348;DHT22;18821;44.800;10.326;2023-04-07T00:48:24;7.70;1.00
32348;DHT22;18821;44.800;10.326;2023-04-07T00:50:50;7.70;1.00
32348;DHT22;18821;44.800;10.326;2023-04-07T00:53:19;7.70;1.00
32348;DHT22;18821;44.800;10.326;2023-04-07T00:55:45;7.70;1.00
32348;DHT22;18821;44.800;10.326;2023-04-07T00:58:11;7.70;1.00
32348;DHT22;18821;44.800;10.326;2023-04-07T01:00:47;7.70;1.00
32348;DHT22;18821;44.800;10.326;2023-04-07T01:03:29;7.60;1.00
32348;DHT22;18821;44.800;10.326;2023-04-07T01:06:00;7.60;99.90
32348;DHT22;18821;44.800;10.326;2023-04-07T01:08:37;7.50;1.00
32348;DHT22;18821;44.800;10.326;2023-04-07T01:11:20;7.50;99.90
32348;DHT22;18821;44.800;10.326;2023-04-07T01:13:52;7.50;99.90
32348;DHT22;18821;44.800;10.326;2023-04-07T01:16:52;7.50;99.90
32348;DHT22;18821;44.800;10.326;2023-04-07T01:20:02;7.40;99.90
32348;DHT22;18821;44.800;10.326;2023-04-07T01:22:40;7.40;99.90
32348;DHT22;18821;44.800;10.326;2023-04-07T01:25:34;7.30;99.90
32348;DHT22;18821;44.800;10.326;2023-04-07T01:28:33;7.30;1.00
32348;DHT22;18821;44.800;10.326;2023-04-07T01:31:05;7.30;99.90
32348;DHT22;18821;44.800;10.326;2023-04-07T01:33:33;7.30;1.00
32348;DHT22;18821;44.800;10.326;2023-04-07T01:36:00;7.30;1.00
32348;DHT22;18821;44.800;10.326;2023-04-07T01:38:29;7.20;1.00
32348;DHT22;18821;44.800;10.326;2023-04-07T01:40:56;7.20;1.00
32348;DHT22;18821;44.800;10.326;2023-04-07T01:43:24;7.20;1.00
32348;DHT22;18821;44.800;10.326;2023-04-07T01:45:53;7.10;28.20
32348;DHT22;18821;44.800;10.326;2023-04-07T01:48:20;7.20;21.80
32348;DHT22;18821;44.800;10.326;2023-04-07T01:50:46;7.20;1.00
32348;DHT22;18821;44.800;10.326;2023-04-07T01:53:14;7.20;1.00
32348;DHT22;18821;44.800;10.326;2023-04-07T01:55:42;7.20;1.00
32348;DHT22;18821;44.800;10.326;2023-04-07T01:58:09;7.20;1.00
32348;DHT22;18821;44.800;10.326;2023-04-07T02:00:38;7.10;1.00
32348;DHT22;18821;44.800;10.326;2023-04-07T02:03:13;7.10;1.00
32348;DHT22;18821;44.800;10.326;2023-04-07T02:05:51;7.10;99.90
32348;DHT22;18821;44.800;10.326;2023-04-07T02:08:20;7.10;99.90
32348;DHT22;18821;44.800;10.326;2023-04-07T02:10:50;7.10;99.90
32348;DHT22;18821;44.800;10.326;2023-04-07T02:13:19;7.10;1.00
32348;DHT22;18821;44.800;10.326;2023-04-07T02:15:48;7.10;1.00
32348;DHT22;18821;44.800;10.326;2023-04-07T02:18:18;7.20;1.00
32348;DHT22;18821;44.800;10.326;2023-04-07T02:20:45;7.10;1.00
32348;DHT22;18821;44.800;10.326;2023-04-07T02:23:12;7.10;99.90
32348;DHT22;18821;44.800;10.326;2023-04-07T02:25:38;7.10;61.40
32348;DHT22;18821;44.800;10.326;2023-04-07T02:28:05;7.10;99.90
32348;DHT22;18821;44.800;10.326;2023-04-07T02:30:34;7.10;99.90
32348;DHT22;18821;44.800;10.326;2023-04-07T02:33:00;7.10;1.00
32348;DHT22;18821;44.800;10.326;2023-04-07T02:35:26;7.10;1.00
32348;DHT22;18821;44.800;10.326;2023-04-07T02:37:52;7.10;1.00
32348;DHT22;18821;44.800;10.326;2023-04-07T02:40:18;7.10;99.90
32348;DHT22;18821;44.800;10.326;2023-04-07T02:42:45;7.20;99.90
32348;DHT22;18821;44.800;10.326;2023-04-07T02:45:11;7.10;42.60
32348;DHT22;18821;44.800;10.326;2023-04-07T02:47:38;7.00;1.00
32348;DHT22;18821;44.800;10.326;2023-04-07T02:50:05;7.10;1.00
32348;DHT22;18821;44.800;10.326;2023-04-07T02:52:34;7.10;1.00
32348;DHT22;18821;44.800;10.326;2023-04-07T02:55:03;7.00;1.00
32348;DHT22;18821;44.800;10.326;2023-04-07T02:57:29;6.90;1.00
32348;DHT22;18821;44.800;10.326;2023-04-07T02:59:59;6.90;99.90
32348;DHT22;18821;44.800;10.326;2023-04-07T03:02:37;6.90;1.00
32348;DHT22;18821;44.800;10.326;2023-04-07T03:05:03;6.90;99.90
32348;DHT22;18821;44.800;10.326;2023-04-07T03:07:29;6.90;99.90
32348;DHT22;18821;44.800;10.326;2023-04-07T03:09:57;6.90;99.90
32348;DHT22;18821;44.800;10.326;2023-04-07T03:12:23;6.90;99.90
32348;DHT22;18821;44.800;10.326;2023-04-07T03:14:49;6.90;99.90
32348;DHT22;18821;44.800;10.326;2023-04-07T03:17:15;6.90;1.00
32348;DHT22;18821;44.800;10.326;2023-04-07T03:19:43;6.90;99.90
32348;DHT22;18821;44.800;10.326;2023-04-07T03:22:09;6.90;1.00
32348;DHT22;18821;44.800;10.326;2023-04-07T03:24:41;6.90;1.00
32348;DHT22;18821;44.800;10.326;2023-04-07T03:27:07;6.90;1.00
32348;DHT22;18821;44.800;10.326;2023-04-07T03:29:40;6.80;99.90
32348;DHT22;18821;44.800;10.326;2023-04-07T03:32:10;6.70;1.00
32348;DHT22;18821;44.800;10.326;2023-04-07T03:34:36;6.50;1.00
32348;DHT22;18821;44.800;10.326;2023-04-07T03:37:02;6.40;1.00
32348;DHT22;18821;44.800;10.326;2023-04-07T03:39:31;6.40;1.00
32348;DHT22;18821;44.800;10.326;2023-04-07T03:41:59;6.40;1.00
32348;DHT22;18821;44.800;10.326;2023-04-07T03:44:29;6.40;5.00
32348;DHT22;18821;44.800;10.326;2023-04-07T03:46:55;6.40;30.30
32348;DHT22;18821;44.800;10.326;2023-04-07T03:49:22;6.40;64.30
32348;DHT22;18821;44.800;10.326;2023-04-07T03:51:50;6.30;99.90
32348;DHT22;18821;44.800;10.326;2023-04-07T03:54:17;6.40;99.90
32348;DHT22;18821;44.800;10.326;2023-04-07T03:56:44;6.40;99.90
32348;DHT22;18821;44.800;10.326;2023-04-07T03:59:11;6.40;99.90
32348;DHT22;18821;44.800;10.326;2023-04-07T04:01:48;6.40;99.90
32348;DHT22;18821;44.800;10.326;2023-04-07T04:04:15;6.40;99.90
32348;DHT22;18821;44.800;10.326;2023-04-07T04:06:41;6.50;99.90
32348;DHT22;18821;44.800;10.326;2023-04-07T04:09:16;6.50;99.90
32348;DHT22;18821;44.800;10.326;2023-04-07T04:11:45;6.50;99.90
32348;DHT22;18821;44.800;10.326;2023-04-07T04:14:12;6.50;99.90
32348;DHT22;18821;44.800;10.326;2023-04-07T04:16:40;6.40;99.90
32348;DHT22;18821;44.800;10.326;2023-04-07T04:19:19;6.40;99.90
32348;DHT22;18821;44.800;10.326;2023-04-07T04:21:45;6.40;99.90
32348;DHT22;18821;44.800;10.326;2023-04-07T04:24:13;6.30;99.90
32348;DHT22;18821;44.800;10.326;2023-04-07T04:26:39;6.30;99.90
32348;DHT22;18821;44.800;10.326;2023-04-07T04:29:10;6.30;99.90
32348;DHT22;18821;44.800;10.326;2023-04-07T04:31:38;6.30;52.70
32348;DHT22;18821;44.800;10.326;2023-04-07T04:34:04;6.30;80.20
32348;DHT22;18821;44.800;10.326;2023-04-07T04:36:30;6.20;82.30
32348;DHT22;18821;44.800;10.326;2023-04-07T04:39:02;6.30;53.20
32348;DHT22;18821;44.800;10.326;2023-04-07T04:41:28;6.20;55.30
32348;DHT22;18821;44.800;10.326;2023-04-07T04:43:55;6.30;18.90
32348;DHT22;18821;44.800;10.326;2023-04-07T04:46:24;6.30;26.20
32348;DHT22;18821;44.800;10.326;2023-04-07T04:48:50;6.30;11.60
32348;DHT22;18821;44.800;10.326;2023-04-07T04:51:19;6.30;1.00
32348;DHT22;18821;44.800;10.326;2023-04-07T04:53:49;6.40;1.00
32348;DHT22;18821;44.800;10.326;2023-04-07T04:56:16;6.40;1.00
32348;DHT22;18821;44.800;10.326;2023-04-07T04:58:45;6.40;1.00
32348;DHT22;18821;44.800;10.326;2023-04-07T05:01:17;6.40;1.00
32348;DHT22;18821;44.800;10.326;2023-04-07T05:03:51;6.50;1.00
32348;DHT22;18821;44.800;10.326;2023-04-07T05:06:21;6.50;1.00
32348;DHT22;18821;44.800;10.326;2023-04-07T05:08:50;6.60;1.00
32348;DHT22;18821;44.800;10.326;2023-04-07T05:11:20;6.60;1.00
32348;DHT22;18821;44.800;10.326;2023-04-07T05:13:50;6.70;1.00
32348;DHT22;18821;44.800;10.326;2023-04-07T05:16:15;6.70;1.00
32348;DHT22;18821;44.800;10.326;2023-04-07T05:18:42;6.80;1.00
32348;DHT22;18821;44.800;10.326;2023-04-07T05:21:09;6.90;1.00
32348;DHT22;18821;44.800;10.326;2023-04-07T05:23:36;7.00;1.00
32348;DHT22;18821;44.800;10.326;2023-04-07T05:26:03;7.00;1.00
32348;DHT22;18821;44.800;10.326;2023-04-07T05:28:30;7.20;1.00
32348;DHT22;18821;44.800;10.326;2023-04-07T05:31:00;7.20;99.90
32348;DHT22;18821;44.800;10.326;2023-04-07T05:33:29;7.30;99.90
32348;DHT22;18821;44.800;10.326;2023-04-07T05:35:56;7.50;99.90
32348;DHT22;18821;44.800;10.326;2023-04-07T05:38:22;7.60;99.90
32348;DHT22;18821;44.800;10.326;2023-04-07T05:40:48;7.90;99.90
32348;DHT22;18821;44.800;10.326;2023-04-07T05:43:34;8.10;1.00
32348;DHT22;18821;44.800;10.326;2023-04-07T05:46:01;8.60;1.00
32348;DHT22;18821;44.800;10.326;2023-04-07T05:48:27;8.80;1.00
32348;DHT22;18821;44.800;10.326;2023-04-07T05:50:54;9.20;99.90
32348;DHT22;18821;44.800;10.326;2023-04-07T05:53:20;9.50;99.90
32348;DHT22;18821;44.800;10.326;2023-04-07T05:55:47;9.80;99.90
32348;DHT22;18821;44.800;10.326;2023-04-07T05:58:22;9.90;1.00
32348;DHT22;18821;44.800;10.326;2023-04-07T06:00:52;10.10;99.90
32348;DHT22;18821;44.800;10.326;2023-04-07T06:03:18;10.20;1.00
32348;DHT22;18821;44.800;10.326;2023-04-07T06:05:53;10.50;88.30
32348;DHT22;18821;44.800;10.326;2023-04-07T06:08:21;10.80;1.00
32348;DHT22;18821;44.800;10.326;2023-04-07T06:10:47;11.20;1.00
32348;DHT22;18821;44.800;10.326;2023-04-07T06:13:13;11.70;63.70
32348;DHT22;18821;44.800;10.326;2023-04-07T06:15:39;11.80;1.00
32348;DHT22;18821;44.800;10.326;2023-04-07T06:18:05;11.90;1.00
32348;DHT22;18821;44.800;10.326;2023-04-07T06:20:31;12.20;1.00
32348;DHT22;18821;44.800;10.326;2023-04-07T06:22:57;12.60;99.90
32348;DHT22;18821;44.800;10.326;2023-04-07T06:25:25;12.70;99.90
32348;DHT22;18821;44.800;10.326;2023-04-07T06:27:53;13.10;99.90
32348;DHT22;18821;44.800;10.326;2023-04-07T06:30:19;13.50;83.30
32348;DHT22;18821;44.800;10.326;2023-04-07T06:32:46;13.70;4.30
32348;DHT22;18821;44.800;10.326;2023-04-07T06:35:12;13.80;1.00
32348;DHT22;18821;44.800;10.326;2023-04-07T06:37:37;13.60;1.00
32348;DHT22;18821;44.800;10.326;2023-04-07T06:40:05;13.40;1.00
32348;DHT22;18821;44.800;10.326;2023-04-07T06:42:31;13.10;1.00
32348;DHT22;18821;44.800;10.326;2023-04-07T06:45:06;12.70;1.00
32348;DHT22;18821;44.800;10.326;2023-04-07T06:47:32;12.40;24.30
32348;DHT22;18821;44.800;10.326;2023-04-07T06:49:58;12.30;48.30
32348;DHT22;18821;44.800;10.326;2023-04-07T06:52:24;12.10;99.90
32348;DHT22;18821;44.800;10.326;2023-04-07T06:54:50;12.00;99.90
32348;DHT22;18821;44.800;10.326;2023-04-07T06:57:16;11.90;99.90
32348;DHT22;18821;44.800;10.326;2023-04-07T06:59:42;11.70;99.90
32348;DHT22;18821;44.800;10.326;2023-04-07T07:02:08;11.80;99.90
32348;DHT22;18821;44.800;10.326;2023-04-07T07:04:34;11.70;99.90
32348;DHT22;18821;44.800;10.326;2023-04-07T07:07:00;11.60;99.90
32348;DHT22;18821;44.800;10.326;2023-04-07T07:09:26;11.80;99.90
32348;DHT22;18821;44.800;10.326;2023-04-07T07:11:52;11.70;1.00
32348;DHT22;18821;44.800;10.326;2023-04-07T07:14:18;11.20;28.90
32348;DHT22;18821;44.800;10.326;2023-04-07T07:16:44;10.90;1.00
32348;DHT22;18821;44.800;10.326;2023-04-07T07:19:10;11.00;1.00
32348;DHT22;18821;44.800;10.326;2023-04-07T07:21:36;11.30;1.00
32348;DHT22;18821;44.800;10.326;2023-04-07T07:24:02;11.10;1.00
32348;DHT22;18821;44.800;10.326;2023-04-07T07:26:28;11.20;1.00
32348;DHT22;18821;44.800;10.326;2023-04-07T07:28:53;11.10;99.80
32348;DHT22;18821;44.800;10.326;2023-04-07T07:31:21;11.30;89.70
32348;DHT22;18821;44.800;10.326;2023-04-07T07:33:46;11.80;1.00
32348;DHT22;18821;44.800;10.326;2023-04-07T07:36:14;12.30;1.00
32348;DHT22;18821;44.800;10.326;2023-04-07T07:38:40;12.30;99.90
32348;DHT22;18821;44.800;10.326;2023-04-07T07:41:06;12.50;99.90
32348;DHT22;18821;44.800;10.326;2023-04-07T07:43:32;12.60;99.90
32348;DHT22;18821;44.800;10.326;2023-04-07T07:45:58;12.60;99.90
32348;DHT22;18821;44.800;10.326;2023-04-07T07:48:24;12.40;93.30
32348;DHT22;18821;44.800;10.326;2023-04-07T07:50:51;12.10;80.60
32348;DHT22;18821;44.800;10.326;2023-04-07T07:53:17;12.00;99.90
32348;DHT22;18821;44.800;10.326;2023-04-07T07:55:44;12.30;99.90
32348;DHT22;18821;44.800;10.326;2023-04-07T07:58:10;12.40;46.10
32348;DHT22;18821;44.800;10.326;2023-04-07T08:00:36;12.50;68.40
32348;DHT22;18821;44.800;10.326;2023-04-07T08:03:02;12.20;99.90
32348;DHT22;18821;44.800;10.326;2023-04-07T08:05:28;11.90;99.90
32348;DHT22;18821;44.800;10.326;2023-04-07T08:07:54;12.00;99.90
32348;DHT22;18821;44.800;10.326;2023-04-07T08:10:20;12.20;99.90
32348;DHT22;18821;44.800;10.326;2023-04-07T08:12:46;11.90;99.90
32348;DHT22;18821;44.800;10.326;2023-04-07T08:15:12;11.80;99.90
32348;DHT22;18821;44.800;10.326;2023-04-07T08:17:38;11.80;99.90
32348;DHT22;18821;44.800;10.326;2023-04-07T08:20:04;12.00;99.90
32348;DHT22;18821;44.800;10.326;2023-04-07T08:22:31;12.10;99.90
32348;DHT22;18821;44.800;10.326;2023-04-07T08:24:58;12.30;99.90
32348;DHT22;18821;44.800;10.326;2023-04-07T08:27:24;12.40;99.90
32348;DHT22;18821;44.800;10.326;2023-04-07T08:30:04;12.50;99.90
32348;DHT22;18821;44.800;10.326;2023-04-07T08:35:00;12.80;99.90
32348;DHT22;18821;44.800;10.326;2023-04-07T08:37:26;12.90;99.90
32348;DHT22;18821;44.800;10.326;2023-04-07T08:39:52;12.90;99.90
32348;DHT22;18821;44.800;10.326;2023-04-07T08:42:19;13.00;99.90
32348;DHT22;18821;44.800;10.326;2023-04-07T08:44:47;13.10;99.90
32348;DHT22;18821;44.800;10.326;2023-04-07T08:47:16;13.00;80.20
32348;DHT22;18821;44.800;10.326;2023-04-07T08:49:44;13.00;60.20
32348;DHT22;18821;44.800;10.326;2023-04-07T08:52:11;13.00;80.70
32348;DHT22;18821;44.800;10.326;2023-04-07T08:54:40;13.40;16.80
32348;DHT22;18821;44.800;10.326;2023-04-07T08:57:07;13.60;1.00
32348;DHT22;18821;44.800;10.326;2023-04-07T08:59:33;13.70;1.00
32348;DHT22;18821;44.800;10.326;2023-04-07T09:02:01;13.50;1.00
32348;DHT22;18821;44.800;10.326;2023-04-07T09:04:27;13.40;1.00
32348;DHT22;18821;44.800;10.326;2023-04-07T09:06:53;13.70;1.00
32348;DHT22;18821;44.800;10.326;2023-04-07T09:09:19;13.60;1.00
32348;DHT22;18821;44.800;10.326;2023-04-07T09:11:47;13.50;34.70
32348;DHT22;18821;44.800;10.326;2023-04-07T09:14:13;13.50;64.70
32348;DHT22;18821;44.800;10.326;2023-04-07T09:16:40;13.50;27.80
32348;DHT22;18821;44.800;10.326;2023-04-07T09:19:06;13.60;99.90
32348;DHT22;18821;44.800;10.326;2023-04-07T09:21:52;13.50;99.90
32348;DHT22;18821;44.800;10.326;2023-04-07T09:24:25;13.50;99.90
32348;DHT22;18821;44.800;10.326;2023-04-07T09:27:12;13.90;99.90
32348;DHT22;18821;44.800;10.326;2023-04-07T09:29:40;14.00;52.10
32348;DHT22;18821;44.800;10.326;2023-04-07T09:32:07;14.20;3.40
32348;DHT22;18821;44.800;10.326;2023-04-07T09:34:35;14.10;1.00
32348;DHT22;18821;44.800;10.326;2023-04-07T09:37:02;14.30;1.00
32348;DHT22;18821;44.800;10.326;2023-04-07T09:39:28;14.30;1.00
32348;DHT22;18821;44.800;10.326;2023-04-07T09:41:54;14.70;1.00
32348;DHT22;18821;44.800;10.326;2023-04-07T09:44:21;15.00;1.00
32348;DHT22;18821;44.800;10.326;2023-04-07T09:46:57;15.30;1.00
32348;DHT22;18821;44.800;10.326;2023-04-07T09:49:24;15.10;1.00
32348;DHT22;18821;44.800;10.326;2023-04-07T09:52:02;14.40;1.00
32348;DHT22;18821;44.800;10.326;2023-04-07T09:57:00;14.60;1.00
32348;DHT22;18821;44.800;10.326;2023-04-07T09:59:31;14.50;1.00
32348;DHT22;18821;44.800;10.326;2023-04-07T10:01:58;15.00;1.00
32348;DHT22;18821;44.800;10.326;2023-04-07T10:04:25;15.40;99.90
32348;DHT22;18821;44.800;10.326;2023-04-07T10:06:52;15.70;99.90
32348;DHT22;18821;44.800;10.326;2023-04-07T10:09:19;16.00;99.90
32348;DHT22;18821;44.800;10.326;2023-04-07T10:11:47;15.80;99.90
32348;DHT22;18821;44.800;10.326;2023-04-07T10:14:15;15.80;99.90
32348;DHT22;18821;44.800;10.326;2023-04-07T10:16:42;15.90;99.90
32348;DHT22;18821;44.800;10.326;2023-04-07T10:19:09;15.90;99.90
32348;DHT22;18821;44.800;10.326;2023-04-07T10:21:38;16.10;99.90
32348;DHT22;18821;44.800;10.326;2023-04-07T10:26:53;16.10;99.90
32348;DHT22;18821;44.800;10.326;2023-04-07T10:29:22;16.00;99.90
32348;DHT22;18821;44.800;10.326;2023-04-07T10:31:50;16.00;99.90
32348;DHT22;18821;44.800;10.326;2023-04-07T10:34:16;15.80;99.90
32348;DHT22;18821;44.800;10.326;2023-04-07T10:37:08;15.70;99.90
32348;DHT22;18821;44.800;10.326;2023-04-07T10:39:35;15.80;99.90
32348;DHT22;18821;44.800;10.326;2023-04-07T10:42:02;16.00;99.90
32348;DHT22;18821;44.800;10.326;2023-04-07T10:47:04;15.90;99.90
32348;DHT22;18821;44.800;10.326;2023-04-07T10:49:32;16.10;99.90
32348;DHT22;18821;44.800;10.326;2023-04-07T10:54:37;16.10;99.90
32348;DHT22;18821;44.800;10.326;2023-04-07T10:59:42;16.20;99.90
32348;DHT22;18821;44.800;10.326;2023-04-07T11:04:53;16.30;99.90
32348;DHT22;18821;44.800;10.326;2023-04-07T11:07:42;16.30;99.90
32348;DHT22;18821;44.800;10.326;2023-04-07T11:10:12;16.30;99.90
32348;DHT22;18821;44.800;10.326;2023-04-07T11:12:38;16.20;99.90
32348;DHT22;18821;44.800;10.326;2023-04-07T11:15:30;16.00;99.90
32348;DHT22;18821;44.800;10.326;2023-04-07T11:20:51;16.20;99.90
32348;DHT22;18821;44.800;10.326;2023-04-07T11:23:19;16.30;99.90
32348;DHT22;18821;44.800;10.326;2023-04-07T11:25:47;16.30;99.90
32348;DHT22;18821;44.800;10.326;2023-04-07T11:28:14;16.20;99.90
32348;DHT22;18821;44.800;10.326;2023-04-07T11:30:50;16.30;99.90
32348;DHT22;18821;44.800;10.326;2023-04-07T11:33:19;16.40;99.90
32348;DHT22;18821;44.800;10.326;2023-04-07T11:35:53;16.50;99.90
32348;DHT22;18821;44.800;10.326;2023-04-07T11:38:22;16.50;99.90
32348;DHT22;18821;44.800;10.326;2023-04-07T11:40:48;16.60;99.90
32348;DHT22;18821;44.800;10.326;2023-04-07T11:43:24;16.80;99.90
32348;DHT22;18821;44.800;10.326;2023-04-07T11:46:12;16.70;99.90
32348;DHT22;18821;44.800;10.326;2023-04-07T11:48:40;16.30;99.90
32348;DHT22;18821;44.800;10.326;2023-04-07T11:51:15;15.90;99.90
32348;DHT22;18821;44.800;10.326;2023-04-07T11:53:42;15.90;99.90
32348;DHT22;18821;44.800;10.326;2023-04-07T11:56:11;15.80;99.90
32348;DHT22;18821;44.800;10.326;2023-04-07T11:58:54;15.90;99.90
32348;DHT22;18821;44.800;10.326;2023-04-07T12:01:21;16.20;99.90
32348;DHT22;18821;44.800;10.326;2023-04-07T12:04:02;16.40;99.90
32348;DHT22;18821;44.800;10.326;2023-04-07T12:06:35;16.40;99.90
32348;DHT22;18821;44.800;10.326;2023-04-07T12:09:07;16.10;99.70
32348;DHT22;18821;44.800;10.326;2023-04-07T12:11:33;16.40;99.60
32348;DHT22;18821;44.800;10.326;2023-04-07T12:14:01;16.50;94.50
32348;DHT22;18821;44.800;10.326;2023-04-07T12:16:30;16.50;85.90
32348;DHT22;18821;44.800;10.326;2023-04-07T12:18:56;16.60;84.20
32348;DHT22;18821;44.800;10.326;2023-04-07T12:21:22;16.80;87.40
32348;DHT22;18821;44.800;10.326;2023-04-07T12:23:50;16.70;74.00
32348;DHT22;18821;44.800;10.326;2023-04-07T12:26:17;16.50;64.20
32348;DHT22;18821;44.800;10.326;2023-04-07T12:28:43;16.40;63.70
32348;DHT22;18821;44.800;10.326;2023-04-07T12:31:09;16.10;77.00
32348;DHT22;18821;44.800;10.326;2023-04-07T12:33:35;16.10;90.80
32348;DHT22;18821;44.800;10.326;2023-04-07T12:36:01;16.10;92.20
32348;DHT22;18821;44.800;10.326;2023-04-07T12:38:27;16.00;93.30
32348;DHT22;18821;44.800;10.326;2023-04-07T12:40:53;16.00;93.10
32348;DHT22;18821;44.800;10.326;2023-04-07T12:43:19;15.90;91.40
32348;DHT22;18821;44.800;10.326;2023-04-07T12:45:45;15.60;90.30
32348;DHT22;18821;44.800;10.326;2023-04-07T12:48:11;15.30;89.50
32348;DHT22;18821;44.800;10.326;2023-04-07T12:50:37;15.40;91.60
32348;DHT22;18821;44.800;10.326;2023-04-07T12:53:03;15.30;87.40
32348;DHT22;18821;44.800;10.326;2023-04-07T12:55:30;15.20;87.00
32348;DHT22;18821;44.800;10.326;2023-04-07T12:57:59;15.20;92.30
32348;DHT22;18821;44.800;10.326;2023-04-07T13:00:25;15.10;93.80
32348;DHT22;18821;44.800;10.326;2023-04-07T13:02:51;15.00;95.50
32348;DHT22;18821;44.800;10.326;2023-04-07T13:05:17;14.90;97.00
32348;DHT22;18821;44.800;10.326;2023-04-07T13:07:43;14.90;97.40
32348;DHT22;18821;44.800;10.326;2023-04-07T13:10:09;14.80;97.70
32348;DHT22;18821;44.800;10.326;2023-04-07T13:12:36;14.70;96.50
32348;DHT22;18821;44.800;10.326;2023-04-07T13:15:02;14.80;99.00
32348;DHT22;18821;44.800;10.326;2023-04-07T13:17:28;14.80;99.90
32348;DHT22;18821;44.800;10.326;2023-04-07T13:19:54;14.70;99.90
32348;DHT22;18821;44.800;10.326;2023-04-07T13:22:20;14.70;99.90
32348;DHT22;18821;44.800;10.326;2023-04-07T13:24:47;14.70;99.90
32348;DHT22;18821;44.800;10.326;2023-04-07T13:27:13;14.70;99.90
32348;DHT22;18821;44.800;10.326;2023-04-07T13:29:39;14.50;99.90
32348;DHT22;18821;44.800;10.326;2023-04-07T13:32:06;14.50;99.90
32348;DHT22;18821;44.800;10.326;2023-04-07T13:34:35;14.50;99.90
32348;DHT22;18821;44.800;10.326;2023-04-07T13:37:02;14.40;99.90
32348;DHT22;18821;44.800;10.326;2023-04-07T13:39:29;14.40;99.90
32348;DHT22;18821;44.800;10.326;2023-04-07T13:41:56;14.30;99.90
32348;DHT22;18821;44.800;10.326;2023-04-07T13:44:23;14.20;99.90
32348;DHT22;18821;44.800;10.326;2023-04-07T13:46:49;14.20;99.90
32348;DHT22;18821;44.800;10.326;2023-04-07T13:49:15;14.30;99.90
32348;DHT22;18821;44.800;10.326;2023-04-07T13:51:42;14.30;99.90
32348;DHT22;18821;44.800;10.326;2023-04-07T13:54:08;14.40;99.90
32348;DHT22;18821;44.800;10.326;2023-04-07T13:56:34;14.20;99.90
32348;DHT22;18821;44.800;10.326;2023-04-07T13:59:00;14.10;99.90
32348;DHT22;18821;44.800;10.326;2023-04-07T14:01:26;14.10;99.90
32348;DHT22;18821;44.800;10.326;2023-04-07T14:03:53;13.90;99.90
32348;DHT22;18821;44.800;10.326;2023-04-07T14:06:19;13.90;99.90
32348;DHT22;18821;44.800;10.326;2023-04-07T14:08:49;13.90;99.90
32348;DHT22;18821;44.800;10.326;2023-04-07T14:11:16;13.90;99.90
32348;DHT22;18821;44.800;10.326;2023-04-07T14:13:43;13.90;99.90
32348;DHT22;18821;44.800;10.326;2023-04-07T14:16:09;13.90;99.90
32348;DHT22;18821;44.800;10.326;2023-04-07T14:18:35;13.90;99.90
32348;DHT22;18821;44.800;10.326;2023-04-07T14:21:01;13.90;99.90
32348;DHT22;18821;44.800;10.326;2023-04-07T14:23:28;13.90;99.90
32348;DHT22;18821;44.800;10.326;2023-04-07T14:25:54;14.00;99.90
32348;DHT22;18821;44.800;10.326;2023-04-07T14:28:20;14.00;99.90
32348;DHT22;18821;44.800;10.326;2023-04-07T14:30:46;13.90;99.90
32348;DHT22;18821;44.800;10.326;2023-04-07T14:33:12;13.90;99.90
32348;DHT22;18821;44.800;10.326;2023-04-07T14:35:38;13.70;99.90
32348;DHT22;18821;44.800;10.326;2023-04-07T14:38:04;13.80;99.90
32348;DHT22;18821;44.800;10.326;2023-04-07T14:40:31;13.70;99.90
32348;DHT22;18821;44.800;10.326;2023-04-07T14:42:57;13.50;99.90
32348;DHT22;18821;44.800;10.326;2023-04-07T14:45:24;13.50;99.90
32348;DHT22;18821;44.800;10.326;2023-04-07T14:47:50;13.30;99.90
32348;DHT22;18821;44.800;10.326;2023-04-07T14:50:16;13.20;99.90
32348;DHT22;18821;44.800;10.326;2023-04-07T14:52:42;13.20;99.90
32348;DHT22;18821;44.800;10.326;2023-04-07T14:55:08;13.20;1.00
32348;DHT22;18821;44.800;10.326;2023-04-07T14:57:34;13.00;1.00
32348;DHT22;18821;44.800;10.326;2023-04-07T15:00:01;12.90;35.80
32348;DHT22;18821;44.800;10.326;2023-04-07T15:02:28;12.90;99.90
32348;DHT22;18821;44.800;10.326;2023-04-07T15:04:56;12.70;15.60
32348;DHT22;18821;44.800;10.326;2023-04-07T15:07:22;12.70;90.00
32348;DHT22;18821;44.800;10.326;2023-04-07T15:09:48;12.70;6.00
32348;DHT22;18821;44.800;10.326;2023-04-07T15:12:14;12.70;20.40
32348;DHT22;18821;44.800;10.326;2023-04-07T15:14:40;12.80;99.90
32348;DHT22;18821;44.800;10.326;2023-04-07T15:17:06;12.80;99.90
32348;DHT22;18821;44.800;10.326;2023-04-07T15:19:31;12.80;99.90
32348;DHT22;18821;44.800;10.326;2023-04-07T15:21:57;12.90;1.00
32348;DHT22;18821;44.800;10.326;2023-04-07T15:24:23;12.90;1.00
32348;DHT22;18821;44.800;10.326;2023-04-07T15:26:49;13.00;1.00
32348;DHT22;18821;44.800;10.326;2023-04-07T15:29:15;13.00;1.00
32348;DHT22;18821;44.800;10.326;2023-04-07T15:31:41;13.10;1.00
32348;DHT22;18821;44.800;10.326;2023-04-07T15:34:07;13.00;1.00
32348;DHT22;18821;44.800;10.326;2023-04-07T15:36:32;13.00;99.90
32348;DHT22;18821;44.800;10.326;2023-04-07T15:39:02;13.00;99.90
32348;DHT22;18821;44.800;10.326;2023-04-07T15:41:28;13.00;1.00
32348;DHT22;18821;44.800;10.326;2023-04-07T15:43:54;12.90;1.00
32348;DHT22;18821;44.800;10.326;2023-04-07T15:46:21;12.90;99.90
32348;DHT22;18821;44.800;10.326;2023-04-07T15:48:47;12.80;1.00
32348;DHT22;18821;44.800;10.326;2023-04-07T15:51:13;12.80;48.00
32348;DHT22;18821;44.800;10.326;2023-04-07T15:53:39;12.70;99.90
32348;DHT22;18821;44.800;10.326;2023-04-07T15:56:05;12.60;99.90